createdAt,value
2023-02-08T00:02:32.474Z,102279.44
2023-02-08T00:05:21.060Z,102279.66
2023-02-08T00:08:11.705Z,102265.75
2023-02-08T00:11:00.343Z,102268.44
2023-02-08T00:13:48.848Z,102259.63
2023-02-08T00:16:37.332Z,102267.72
2023-02-08T00:19:27.326Z,102271.63
2023-02-08T00:22:15.898Z,102271.09
2023-02-08T00:25:04.773Z,102267.84
2023-02-08T00:27:53.291Z,102264.63
2023-02-08T00:30:42.593Z,102228.00
2023-02-08T00:33:31.293Z,102268.28
2023-02-08T00:36:21.710Z,102265.91
2023-02-08T00:39:10.242Z,102265.78
2023-02-08T00:41:58.746Z,102258.97
2023-02-08T00:44:47.277Z,102250.00
2023-02-08T00:47:36.312Z,102252.09
2023-02-08T00:50:24.957Z,102256.47
2023-02-08T00:53:14.815Z,102261.00
2023-02-08T00:56:03.262Z,102265.50
2023-02-08T00:58:51.992Z,102270.91
2023-02-08T01:01:41.212Z,102268.13
2023-02-08T01:04:29.670Z,102263.66
2023-02-08T01:07:18.199Z,102267.69
2023-02-08T01:10:12.352Z,102239.47
2023-02-08T01:13:01.759Z,102264.59
2023-02-08T01:15:50.896Z,102122.38
2023-02-08T01:18:39.610Z,102261.22
2023-02-08T01:21:29.650Z,102259.53
2023-02-08T01:24:18.629Z,102260.06
2023-02-08T01:27:08.393Z,102258.78
2023-02-08T01:29:56.880Z,102250.97
2023-02-08T01:32:45.453Z,102252.88
2023-02-08T01:35:33.884Z,102247.81
2023-02-08T01:38:22.722Z,102251.13
2023-02-08T01:41:16.011Z,102238.38
2023-02-08T01:44:09.064Z,102233.59
2023-02-08T01:46:57.571Z,102224.09
2023-02-08T01:49:46.216Z,102238.44
2023-02-08T01:52:35.015Z,102235.28
2023-02-08T01:55:25.236Z,102234.97
2023-02-08T01:58:14.210Z,102223.63
2023-02-08T02:01:04.617Z,102231.63
2023-02-08T02:03:54.707Z,102227.94
2023-02-08T02:06:45.530Z,102225.78
2023-02-08T02:09:39.253Z,102236.56
2023-02-08T02:12:28.317Z,102223.69
2023-02-08T02:15:16.860Z,102222.75
2023-02-08T02:18:08.387Z,102219.53
2023-02-08T02:21:11.322Z,102211.31
2023-02-08T02:24:31.441Z,102205.94
2023-02-08T02:27:41.927Z,102215.50
2023-02-08T02:31:08.740Z,102208.44
2023-02-08T02:34:04.822Z,102213.69
2023-02-08T02:36:57.691Z,102199.84
2023-02-08T02:39:51.359Z,102207.69
2023-02-08T02:43:04.276Z,102203.91
2023-02-08T02:46:00.026Z,102204.84
2023-02-08T02:48:51.929Z,102205.78
2023-02-08T02:51:44.690Z,102204.22
2023-02-08T02:54:35.610Z,102199.66
2023-02-08T02:57:29.255Z,102204.66
2023-02-08T03:00:23.048Z,102187.06
2023-02-08T03:03:15.278Z,102200.53
2023-02-08T03:06:06.458Z,102202.34
2023-02-08T03:09:14.354Z,102204.59
2023-02-08T03:12:09.392Z,102208.22
2023-02-08T03:15:00.725Z,102197.84
2023-02-08T03:18:02.149Z,102200.09
2023-02-08T03:20:53.511Z,102197.78
2023-02-08T03:23:46.162Z,102153.72
2023-02-08T03:26:39.679Z,102184.28
2023-02-08T03:29:36.420Z,102202.66
2023-02-08T03:32:27.278Z,102197.72
2023-02-08T03:35:18.974Z,102191.38
2023-02-08T03:38:10.676Z,102206.53
2023-02-08T03:41:01.131Z,102148.41
2023-02-08T03:43:53.719Z,102140.50
2023-02-08T03:46:44.917Z,102210.38
2023-02-08T03:49:36.528Z,102217.34
2023-02-08T03:52:25.771Z,102206.47
2023-02-08T03:55:15.764Z,102206.78
2023-02-08T03:58:07.763Z,102211.72
2023-02-08T04:01:00.914Z,102210.16
2023-02-08T04:03:53.448Z,102209.41
2023-02-08T04:06:42.253Z,102204.06
2023-02-08T04:09:30.729Z,102209.47
2023-02-08T04:12:19.347Z,102197.34
2023-02-08T04:15:08.841Z,102208.41
2023-02-08T04:17:58.674Z,102204.06
2023-02-08T04:20:47.110Z,102213.28
2023-02-08T04:23:35.532Z,102210.72
2023-02-08T04:26:23.963Z,102191.78
2023-02-08T04:29:12.450Z,102204.75
2023-02-08T04:32:01.061Z,102205.53
2023-02-08T04:34:50.872Z,102209.31
2023-02-08T04:37:39.357Z,102211.00
2023-02-08T04:40:27.791Z,102210.31
2023-02-08T04:43:16.301Z,102206.00
2023-02-08T04:46:06.026Z,102201.94
2023-02-08T04:48:55.640Z,102196.63
2023-02-08T04:51:46.396Z,102193.09
2023-02-08T04:54:35.011Z,102192.34
2023-02-08T04:57:23.483Z,102188.22
2023-02-08T05:00:13.402Z,102190.22
2023-02-08T05:03:01.864Z,102180.53
2023-02-08T05:05:58.970Z,102185.91
2023-02-08T05:08:48.783Z,102176.66
2023-02-08T05:11:38.047Z,102180.19
2023-02-08T05:14:26.542Z,102172.53
2023-02-08T05:17:15.036Z,102170.91
2023-02-08T05:20:03.930Z,102173.72
2023-02-08T05:22:52.407Z,102171.91
2023-02-08T05:25:42.230Z,102174.47
2023-02-08T05:28:30.721Z,102166.19
2023-02-08T05:31:21.479Z,102173.41
2023-02-08T05:34:10.011Z,102179.81
2023-02-08T05:36:58.475Z,102175.97
2023-02-08T05:39:46.988Z,102177.84
2023-02-08T05:42:36.780Z,102173.72
2023-02-08T05:45:25.319Z,102173.72
2023-02-08T05:48:14.321Z,102174.34
2023-02-08T05:51:02.759Z,102177.56
2023-02-08T05:53:51.259Z,102175.69
2023-02-08T05:56:40.077Z,102174.75
2023-02-08T05:59:30.095Z,102172.59
2023-02-08T06:02:18.595Z,102173.72
2023-02-08T06:05:07.785Z,102180.91
2023-02-08T06:07:56.222Z,102183.53
2023-02-08T06:10:45.889Z,102181.75
2023-02-08T06:13:34.601Z,102189.56
2023-02-08T06:16:24.537Z,102192.13
2023-02-08T06:19:13.370Z,102185.75
2023-02-08T06:22:01.819Z,102151.75
2023-02-08T06:24:50.246Z,102200.47
2023-02-08T06:27:38.764Z,102200.34
2023-02-08T06:30:27.230Z,102200.34
2023-02-08T06:33:17.360Z,102192.63
2023-02-08T06:36:06.552Z,102193.34
2023-02-08T06:38:55.293Z,102203.50
2023-02-08T06:41:43.843Z,102193.16
2023-02-08T06:44:32.294Z,102199.31
2023-02-08T06:47:20.756Z,102201.88
2023-02-08T06:50:11.329Z,102212.66
2023-02-08T06:52:59.833Z,102214.47
2023-02-08T06:55:49.108Z,102216.66
2023-02-08T06:58:38.986Z,102216.81
2023-02-08T07:01:27.537Z,102224.50
2023-02-08T07:04:16.005Z,102211.41
2023-02-08T07:07:06.152Z,102216.16
2023-02-08T07:09:54.861Z,102209.84
2023-02-08T07:12:43.285Z,102206.50
2023-02-08T07:15:32.061Z,102225.00
2023-02-08T07:18:20.521Z,102229.13
2023-02-08T07:21:11.569Z,102226.53
2023-02-08T07:24:01.464Z,102224.97
2023-02-08T07:26:49.924Z,102233.78
2023-02-08T07:29:39.201Z,102229.59
2023-02-08T07:32:27.858Z,102075.63
2023-02-08T07:35:16.359Z,102227.16
2023-02-08T07:38:04.833Z,102218.19
2023-02-08T07:41:01.460Z,102227.13
2023-02-08T07:43:51.010Z,102231.09
2023-02-08T07:46:40.868Z,102219.94
2023-02-08T07:49:29.505Z,102224.50
2023-02-08T07:52:17.992Z,102215.66
2023-02-08T07:55:06.910Z,102227.31
2023-02-08T07:57:57.243Z,102222.13
2023-02-08T08:00:45.880Z,102224.78
2023-02-08T08:03:34.383Z,102218.81
2023-02-08T08:06:24.007Z,102215.44
2023-02-08T08:09:12.537Z,102208.38
2023-02-08T08:12:02.179Z,102216.78
2023-02-08T08:14:52.274Z,102221.25
2023-02-08T08:17:42.187Z,102217.47
2023-02-08T08:20:30.782Z,102226.47
2023-02-08T08:23:19.648Z,102212.50
2023-02-08T08:26:09.545Z,102221.44
2023-02-08T08:28:58.028Z,102218.44
2023-02-08T08:31:47.959Z,102215.06
2023-02-08T08:34:36.610Z,102216.75
2023-02-08T08:37:25.187Z,102216.94
2023-02-08T08:40:14.139Z,102189.19
2023-02-08T08:43:02.644Z,102223.13
2023-02-08T08:45:53.128Z,102220.41
2023-02-08T08:48:43.379Z,102210.53
2023-02-08T08:51:35.146Z,102217.91
2023-02-08T08:54:23.868Z,102211.09
2023-02-08T08:57:12.349Z,102209.03
2023-02-08T09:00:00.833Z,102215.13
2023-02-08T09:02:49.349Z,102214.50
2023-02-08T09:05:39.196Z,102223.59
2023-02-08T09:08:27.652Z,102228.81
2023-02-08T09:11:17.049Z,102223.88
2023-02-08T09:14:06.493Z,102212.44
2023-02-08T09:16:56.241Z,102194.66
2023-02-08T09:19:45.306Z,102204.34
2023-02-08T09:22:35.164Z,102205.56
2023-02-08T09:25:23.938Z,102196.75
2023-02-08T09:28:12.496Z,102217.47
2023-02-08T09:31:01.713Z,102212.34
2023-02-08T09:33:51.262Z,102208.94
2023-02-08T09:36:41.242Z,102207.34
2023-02-08T09:39:31.154Z,102202.25
2023-02-08T09:42:29.445Z,102194.38
2023-02-08T09:45:30.964Z,102200.75
2023-02-08T09:48:23.290Z,102200.44
2023-02-08T09:51:22.514Z,102193.91
2023-02-08T09:54:16.395Z,102197.47
2023-02-08T09:57:10.655Z,102200.50
2023-02-08T10:00:02.813Z,102199.13
2023-02-08T10:02:51.959Z,102202.22
2023-02-08T10:05:40.607Z,102197.91
2023-02-08T10:08:35.152Z,102202.69
2023-02-08T10:11:33.841Z,102190.50
2023-02-08T10:14:40.855Z,102200.47
2023-02-08T10:17:50.369Z,102195.69
2023-02-08T10:20:51.624Z,102187.84
2023-02-08T10:23:52.300Z,102187.19
2023-02-08T10:26:46.022Z,102177.19
2023-02-08T10:29:55.648Z,102121.69
2023-02-08T10:32:51.268Z,102184.97
2023-02-08T10:35:44.505Z,102182.31
2023-02-08T10:38:45.837Z,102167.38
2023-02-08T10:41:39.398Z,102184.97
2023-02-08T10:44:34.805Z,102178.19
2023-02-08T10:47:34.725Z,102169.38
2023-02-08T10:50:30.559Z,102160.06
2023-02-08T10:53:20.478Z,102164.81
2023-02-08T10:56:19.959Z,102156.78
2023-02-08T10:59:16.064Z,102145.09
2023-02-08T11:02:16.261Z,102137.72
2023-02-08T11:05:08.723Z,102154.97
2023-02-08T11:08:07.458Z,102142.19
2023-02-08T11:11:01.086Z,102135.09
2023-02-08T11:13:52.346Z,102134.25
2023-02-08T11:16:41.850Z,102116.91
2023-02-08T11:19:35.597Z,102117.19
2023-02-08T11:22:26.527Z,102118.38
2023-02-08T11:25:35.572Z,102117.81
2023-02-08T11:28:28.147Z,102113.16
2023-02-08T11:31:19.561Z,102112.50
2023-02-08T11:34:10.112Z,102111.38
2023-02-08T11:36:59.620Z,102104.22
2023-02-08T11:39:54.217Z,102106.66
2023-02-08T11:42:44.211Z,102095.16
2023-02-08T11:45:34.445Z,102074.16
2023-02-08T11:48:26.131Z,102090.63
2023-02-08T11:51:23.839Z,102094.47
2023-02-08T11:54:33.488Z,102086.81
2023-02-08T11:57:24.759Z,102023.38
2023-02-08T12:00:19.843Z,102079.78
2023-02-08T12:03:14.810Z,102080.06
2023-02-08T12:06:22.718Z,102083.72
2023-02-08T12:09:18.870Z,102082.50
2023-02-08T12:12:14.406Z,102078.28
2023-02-08T12:15:10.229Z,102080.25
2023-02-08T12:18:10.389Z,102075.91
2023-02-08T12:21:02.789Z,102063.50
2023-02-08T12:23:56.370Z,102052.84
2023-02-08T12:26:55.902Z,102058.03
2023-02-08T12:29:48.248Z,102057.41
2023-02-08T12:32:59.524Z,102043.31
2023-02-08T12:36:04.248Z,102041.50
2023-02-08T12:39:26.466Z,102005.97
2023-02-08T12:42:29.566Z,102040.75
2023-02-08T12:45:42.915Z,102033.00
2023-02-08T12:48:47.202Z,102010.28
2023-02-08T12:51:41.084Z,102012.56
2023-02-08T12:54:33.357Z,102010.13
2023-02-08T12:57:24.514Z,102014.22
2023-02-08T13:00:19.958Z,101993.09
2023-02-08T13:03:14.081Z,101991.03
2023-02-08T13:06:06.387Z,102003.59
2023-02-08T13:08:59.820Z,101987.25
2023-02-08T13:11:51.361Z,101993.28
2023-02-08T13:14:44.611Z,101945.22
2023-02-08T13:17:46.602Z,101984.34
2023-02-08T13:20:41.260Z,101988.94
2023-02-08T13:23:38.464Z,101971.03
2023-02-08T13:26:34.683Z,101981.69
2023-02-08T13:29:26.114Z,101969.91
2023-02-08T13:32:18.593Z,101969.84
2023-02-08T13:35:14.835Z,101957.38
2023-02-08T13:38:05.253Z,101964.28
2023-02-08T13:41:06.424Z,101958.97
2023-02-08T13:43:57.942Z,101952.97
2023-02-08T13:46:48.418Z,101950.00
2023-02-08T13:49:44.196Z,101947.47
2023-02-08T13:52:50.535Z,101948.34
2023-02-08T13:56:09.181Z,101934.97
2023-02-08T13:59:02.307Z,101945.66
2023-02-08T14:02:26.899Z,101948.38
2023-02-08T14:05:47.166Z,101948.09
2023-02-08T14:08:43.225Z,101961.88
2023-02-08T14:11:40.427Z,101953.47
2023-02-08T14:14:30.433Z,101936.19
2023-02-08T14:17:21.530Z,101944.50
2023-02-08T14:20:20.947Z,101932.75
2023-02-08T14:23:23.173Z,101941.84
2023-02-08T14:26:24.210Z,101933.13
2023-02-08T14:29:23.286Z,101935.09
2023-02-08T14:32:24.093Z,101927.56
2023-02-08T14:35:20.706Z,101929.03
2023-02-08T14:38:48.182Z,101938.97
2023-02-08T14:41:51.293Z,101925.81
2023-02-08T14:45:03.729Z,101925.91
2023-02-08T14:48:15.677Z,101924.94
2023-02-08T14:51:19.935Z,101928.09
2023-02-08T14:54:18.776Z,101910.84
2023-02-08T14:57:25.156Z,101911.91
2023-02-08T15:00:21.228Z,101909.97
2023-02-08T15:03:17.234Z,101921.47
2023-02-08T15:06:49.800Z,101912.88
2023-02-08T15:09:40.535Z,101897.91
2023-02-08T15:12:31.032Z,101911.09
2023-02-08T15:15:29.909Z,101911.28
2023-02-08T15:18:21.821Z,101903.31
2023-02-08T15:21:17.958Z,101895.94
2023-02-08T15:24:15.226Z,101896.81
2023-02-08T15:27:04.290Z,101813.34
2023-02-08T15:29:53.048Z,101883.50
2023-02-08T15:32:41.622Z,101880.53
2023-02-08T15:35:33.750Z,101844.13
2023-02-08T15:38:23.476Z,101885.13
2023-02-08T15:41:13.600Z,101836.50
2023-02-08T15:44:04.091Z,101877.81
2023-02-08T15:49:42.823Z,101873.66
2023-02-08T15:52:34.972Z,101867.88
2023-02-08T15:55:23.613Z,101871.63
2023-02-08T15:58:17.745Z,101806.00
2023-02-08T16:01:08.377Z,101867.28
2023-02-08T16:03:59.142Z,101865.81
2023-02-08T16:06:49.813Z,101870.69
2023-02-08T16:09:39.641Z,101864.88
2023-02-08T16:12:29.277Z,101868.75
2023-02-08T16:15:43.118Z,101869.00
2023-02-08T16:18:34.648Z,101870.22
2023-02-08T16:21:29.597Z,101866.13
2023-02-08T16:24:23.563Z,101827.50
2023-02-08T16:27:22.728Z,101874.34
2023-02-08T16:30:18.451Z,101868.91
2023-02-08T16:33:08.448Z,101869.38
2023-02-08T16:36:01.832Z,101883.13
2023-02-08T16:39:26.511Z,101877.66
2023-02-08T16:42:29.346Z,101886.13
2023-02-08T16:45:20.028Z,101787.47
2023-02-08T16:48:28.758Z,101881.41
2023-02-08T16:51:21.616Z,101737.13
2023-02-08T16:54:13.617Z,101887.34
2023-02-08T16:57:02.253Z,101897.16
2023-02-08T16:59:56.603Z,101891.50
2023-02-08T17:02:45.232Z,101897.72
2023-02-08T17:05:37.065Z,101806.41
2023-02-08T17:08:25.613Z,101896.56
2023-02-08T17:11:14.122Z,101870.63
2023-02-08T17:14:02.753Z,101900.91
2023-02-08T17:16:52.711Z,101896.56
2023-02-08T17:19:41.247Z,101905.34
2023-02-08T17:22:31.324Z,101889.41
2023-02-08T17:25:20.458Z,101891.63
2023-02-08T17:28:12.743Z,101882.31
2023-02-08T17:31:01.727Z,101828.00
2023-02-08T17:33:51.638Z,101889.16
2023-02-08T17:36:42.648Z,101892.97
2023-02-08T17:39:31.651Z,101887.06
2023-02-08T17:42:20.175Z,101848.75
2023-02-08T17:45:09.866Z,101895.84
2023-02-08T17:48:00.994Z,101893.53
2023-02-08T17:50:53.561Z,101886.34
2023-02-08T17:53:43.763Z,101897.78
2023-02-08T17:56:35.351Z,101897.88
2023-02-08T17:59:23.867Z,101901.66
2023-02-08T18:02:12.425Z,101905.50
2023-02-08T18:05:00.881Z,101899.75
2023-02-08T18:07:51.244Z,101898.19
2023-02-08T18:10:39.721Z,101895.44
2023-02-08T18:13:28.288Z,101891.09
2023-02-08T18:16:18.855Z,101907.69
2023-02-08T18:19:07.496Z,101843.69
2023-02-08T18:21:56.474Z,101899.13
2023-02-08T18:24:46.269Z,101902.41
2023-02-08T18:27:34.805Z,101895.94
2023-02-08T18:30:25.500Z,101908.03
2023-02-08T18:33:14.071Z,101914.34
2023-02-08T18:36:02.852Z,101882.19
2023-02-08T18:38:53.101Z,101909.72
2023-02-08T18:41:43.386Z,101906.75
2023-02-08T18:44:31.857Z,101885.06
2023-02-08T18:47:20.363Z,101874.13
2023-02-08T18:50:10.038Z,101898.94
2023-02-08T18:52:58.557Z,101909.91
2023-02-08T18:55:53.440Z,101907.81
2023-02-08T18:58:43.924Z,101916.91
2023-02-08T19:01:32.587Z,101921.38
2023-02-08T19:04:21.177Z,101916.38
2023-02-08T19:07:09.712Z,101917.94
2023-02-08T19:09:58.375Z,101921.84
2023-02-08T19:12:47.070Z,101926.16
2023-02-08T19:15:38.040Z,101919.59
2023-02-08T19:18:26.613Z,101922.63
2023-02-08T19:21:16.974Z,101908.97
2023-02-08T19:24:06.156Z,101911.94
2023-02-08T19:26:54.629Z,101908.09
2023-02-08T19:29:44.393Z,101911.13
2023-02-08T19:32:34.225Z,101917.56
2023-02-08T19:35:22.750Z,101887.88
2023-02-08T19:38:11.319Z,101903.63
2023-02-08T19:40:59.815Z,101900.41
2023-02-08T19:43:49.518Z,101911.25
2023-02-08T19:46:39.101Z,101916.81
2023-02-08T19:49:29.196Z,101908.53
2023-02-08T19:52:20.672Z,101900.34
2023-02-08T19:55:12.374Z,101892.16
2023-02-08T19:58:00.890Z,101897.25
2023-02-08T20:00:49.401Z,101889.59
2023-02-08T20:03:38.126Z,101890.38
2023-02-08T20:06:29.692Z,101893.75
2023-02-08T20:09:18.163Z,101898.09
2023-02-08T20:12:07.220Z,101895.34
2023-02-08T20:14:55.989Z,101890.66
2023-02-08T20:17:45.640Z,101882.44
2023-02-08T20:20:34.640Z,101895.94
2023-02-08T20:23:24.524Z,101898.09
2023-02-08T20:26:14.916Z,101892.47
2023-02-08T20:29:03.448Z,101858.38
2023-02-08T20:31:55.639Z,101895.19
2023-02-08T20:34:53.945Z,101902.47
2023-02-08T20:37:47.484Z,101880.69
2023-02-08T20:40:37.469Z,101897.84
2023-02-08T20:43:26.057Z,101883.44
2023-02-08T20:46:17.037Z,101896.25
2023-02-08T20:49:06.706Z,101885.22
2023-02-08T20:51:55.918Z,101899.72
2023-02-08T20:54:44.838Z,101907.44
2023-02-08T20:57:34.805Z,101903.31
2023-02-08T21:00:26.006Z,101904.81
2023-02-08T21:03:21.885Z,101913.53
2023-02-08T21:06:14.734Z,101857.75
2023-02-08T21:09:06.933Z,101895.66
2023-02-08T21:11:55.481Z,101898.22
2023-02-08T21:14:45.351Z,101895.00
2023-02-08T21:17:34.100Z,101902.03
2023-02-08T21:20:22.907Z,101895.34
2023-02-08T21:23:11.479Z,101888.00
2023-02-08T21:26:00.463Z,101858.22
2023-02-08T21:28:49.493Z,101881.56
2023-02-08T21:31:39.833Z,101878.00
2023-02-08T21:34:28.504Z,101879.44
2023-02-08T21:37:17.117Z,101877.25
2023-02-08T21:40:06.522Z,101844.13
2023-02-08T21:42:55.121Z,101870.25
2023-02-08T21:45:43.703Z,101853.50
2023-02-08T21:48:54.652Z,101845.22
2023-02-08T21:52:00.832Z,101858.03
2023-02-08T21:54:53.417Z,101857.16
2023-02-08T21:57:42.016Z,101831.53
2023-02-08T22:00:30.703Z,101846.88
2023-02-08T22:03:19.236Z,101823.81
2023-02-08T22:06:26.844Z,101843.50
2023-02-08T22:09:15.512Z,101821.00
2023-02-08T22:12:04.073Z,101836.84
2023-02-08T22:14:52.555Z,101830.44
2023-02-08T22:17:41.069Z,101821.66
2023-02-08T22:20:30.236Z,101789.72
2023-02-08T22:23:20.390Z,101813.94
2023-02-08T22:26:09.345Z,101816.41
2023-02-08T22:28:57.946Z,101821.75
2023-02-08T22:31:46.525Z,101826.09
2023-02-08T22:34:35.100Z,101833.72
2023-02-08T22:37:23.735Z,101820.63
2023-02-08T22:40:13.875Z,101817.53
2023-02-08T22:43:02.395Z,101832.59
2023-02-08T22:45:58.155Z,101819.81
2023-02-08T22:48:46.753Z,101820.78
2023-02-08T22:51:35.293Z,101817.63
2023-02-08T22:54:23.794Z,101824.59
2023-02-08T22:57:13.665Z,101825.94
2023-02-08T23:00:02.678Z,101812.47
2023-02-08T23:02:51.286Z,101818.31
2023-02-08T23:05:42.219Z,101810.59
2023-02-08T23:08:30.680Z,101815.44
2023-02-08T23:11:19.774Z,101818.84
2023-02-08T23:14:09.887Z,101821.34
2023-02-08T23:16:58.365Z,101763.63
2023-02-08T23:19:46.862Z,101815.06
2023-02-08T23:22:37.320Z,101800.19
2023-02-08T23:25:25.849Z,101812.81
2023-02-08T23:28:14.428Z,101812.81
2023-02-08T23:31:07.164Z,101814.56
2023-02-08T23:33:55.883Z,101815.88
2023-02-08T23:36:44.653Z,101799.75
2023-02-08T23:39:34.050Z,101803.47
2023-02-08T23:42:28.323Z,101805.34
2023-02-08T23:45:16.861Z,101804.84
2023-02-08T23:48:06.938Z,101795.84
2023-02-08T23:50:58.931Z,101794.41
2023-02-08T23:53:47.855Z,101798.66
2023-02-08T23:56:36.284Z,101797.56
2023-02-08T23:59:24.754Z,101790.91
